Aeroclub de GuadalajaraInformación meteorológica

Información de METAR

 

LEMD - Madrid / Barajas
Distancia desde la estación: SO 49km
Actualización: 25/06/2017 17:11
Thunderstorm, Parcialmente nuboso
Thunderstorm, Parcialmente nuboso
 Viento del SE
Viento: SE 20 km/h
Temperatura: 26°C
Rocío: 13°C
Humedad: 45%
Barómetro: 1015 hPa
Resumen: Thunderstorm
Nubes: Parcialmente nuboso
Visibilidad: 9 km
Detalle de Nubes: Parcialmente nuboso 2134 m
2017/06/25 15:11 LEMD 251511Z 13011KT 080V160 9000 TS SCT070CB 26/13 Q1015 RERA WS R14R NOSIG
LECV - Madrid / Colmenar Viejo
Distancia desde la estación: OSO 47km
Actualización: 25/06/2017 17:23
Lluvia débil, Showers, Cubierto
Lluvia débil, Showers, Cubierto
 Viento del varies
Viento: varies 44 km/h, Racha: 74 km/h
Temperatura: 22°C
Rocío: 14°C
Humedad: 61%
Barómetro: 1018 hPa
Resumen: Lluvia débil, Showers
Nubes: Cubierto
Visibilidad: 5 km
Detalle de Nubes: Poco nuboso 1524 m
Cubierto 3048 m
2017/06/25 15:23 LECV 251523Z VRB24G40KT 5000 -SHRA FEW050 OVC100CB 22/14 Q1018
LETO - Madrid / Torrejon
Distancia desde la estación: SSO 45km
Actualización: 25/06/2017 17:24
Thunderstorm, Parcialmente nuboso
Thunderstorm, Parcialmente nuboso
 Viento del OSO
Viento: OSO 15 km/h
Temperatura: 27°C
Heat Index: 27°C
Rocío: 13°C
Humedad: 42%
Barómetro: 1014 hPa
Resumen: Thunderstorm
Nubes: Parcialmente nuboso
Visibilidad: 7 km
Detalle de Nubes: Parcialmente nuboso 1372 m
2017/06/25 15:24 LETO 251524Z 25008KT 220V280 7000 TS SCT045CB 27/13 Q1014 NOSIG
 
LEVS - Madrid / Cuatro vientos
Distancia desde la estación: SO 70km
Actualización: 25/06/2017 17:15
Parcialmente nuboso
Parcialmente nuboso
 Viento del OSO
Viento: OSO 13 km/h
Temperatura: 24°C
Rocío: 14°C
Humedad: 54%
Barómetro: 1016 hPa
Nubes: Parcialmente nuboso
Visibilidad: 10 km
Detalle de Nubes: Poco nuboso 1067 m
Parcialmente nuboso 1372 m
2017/06/25 15:15 LEVS 251515Z 24007KT 180V300 9999 FEW035 SCT045CB 24/14 Q1016 RETS
LEGT - Madrid / Getafe
Distancia desde la estación: SSO 74km
Actualización: 25/06/2017 17:16
Nearby thunderstorm, Parcialmente nuboso
Nearby thunderstorm, Parcialmente nuboso
 Viento del NO
Viento: NO 6 km/h
Temperatura: 27°C
Heat Index: 27°C
Rocío: 13°C
Humedad: 42%
Barómetro: 1014 hPa
Resumen: Nearby Thunderstorm
Nubes: Parcialmente nuboso
Visibilidad: 10 km
Detalle de Nubes: Poco nuboso 610 m
Parcialmente nuboso 1067 m
2017/06/25 15:16 LEGT 251516Z 31003KT 9999 VCTS FEW020 SCT035CB 27/13 Q1014
LEBL - Barcelona / Aeropuerto
Distancia desde la estación: E 447km
Actualización: 25/06/2017 17:00
Parcialmente nuboso
Parcialmente nuboso
 Viento del S
Viento: S 13 km/h
Temperatura: 27°C
Heat Index: 29°C
Rocío: 22°C
Humedad: 74%
Barómetro: 1016 hPa
Nubes: Parcialmente nuboso
Visibilidad: 10 km
Detalle de Nubes: Parcialmente nuboso 1067 m
2017/06/25 15:00 LEBL 251500Z 17007KT 120V200 9999 SCT035 27/22 Q1016 NOSIG
 
LEVC - Valencia /Aeropuerto
Distancia desde la estación: ESE 280km
Actualización: 25/06/2017 17:00
Poco nuboso
Poco nuboso
 Viento del E
Viento: E 20 km/h
Temperatura: 29°C
Heat Index: 30°C
Rocío: 19°C
Humedad: 55%
Barómetro: 1015 hPa
Nubes: Poco nuboso
Visibilidad: 10 km
Detalle de Nubes: Poco nuboso 823 m
2017/06/25 15:00 LEVC 251500Z 09011KT 050V110 9999 FEW027 29/19 Q1015 NOSIG
LEZG - Zaragoza / Aeropuerto
Distancia desde la estación: ENE 206km
Actualización: 25/06/2017 17:00
Parcialmente nuboso
Parcialmente nuboso
 Viento del NE
Viento: NE 9 km/h
Temperatura: 28°C
Heat Index: 28°C
Rocío: 16°C
Humedad: 48%
Barómetro: 1014 hPa
Nubes: Parcialmente nuboso
Visibilidad: 10 km
Detalle de Nubes: Poco nuboso 762 m
Parcialmente nuboso 2134 m
2017/06/25 15:00 LEZG 251500Z 04005KT 9999 FEW025 SCT070 28/16 Q1014
LEGR - Granada / Aeropuerto
Distancia desde la estación: S 411km
Actualización: 25/06/2017 17:14
Nearby showers, Few clouds
Nearby showers, Few clouds
 Viento del NNO
Viento: NNO 22 km/h
Temperatura: 31°C
Rocío: 13°C
Humedad: 33%
Barómetro: 1014 hPa
Resumen: Nearby Showers
Nubes: Poco nuboso
Visibilidad: 10 km
Detalle de Nubes: Poco nuboso 1524 m
Poco nuboso 1829 m
2017/06/25 15:14 LEGR 251514Z 33012KT 9999 VCSH FEW050 FEW060CB 31/13 Q1014 RETS